PDT,Max TemperatureF,Mean TemperatureF,Min TemperatureF,Max Dew PointF,MeanDew PointF,Min DewpointF,Max Humidity, Mean Humidity, Min Humidity, Max Sea Level PressureIn, Mean Sea Level PressureIn, Min Sea Level PressureIn, Max VisibilityMiles, Mean VisibilityMiles, Min VisibilityMiles, Max Wind SpeedMPH, Mean Wind SpeedMPH, Max Gust SpeedMPH,PrecipitationIn, CloudCover, Events, WindDirDegrees
2013-5-1,62,46,30,37,32,27,100,63,26,30.57,30.53,30.45,10,10,10,7,1,,0.00,7,,342
2013-5-2,68,52,35,41,38,32,100,61,33,30.54,30.44,30.37,10,10,10,6,1,,0.00,7,,352
2013-5-3,69,54,39,46,43,36,100,63,35,30.39,30.33,30.23,10,10,10,10,1,16,0.00,7,,355
2013-5-4,77,58,39,48,42,34,100,59,22,30.24,30.13,30.00,10,10,9,13,2,23,0.00,,,351
2013-5-5,82,63,44,46,43,36,100,52,20,30.00,29.89,29.78,10,10,10,10,2,20,0.00,,,349
2013-5-6,84,64,44,52,45,36,94,54,18,29.87,29.83,29.78,10,10,10,7,1,,0.00,,,339
2013-5-7,71,60,48,54,51,48,100,82,53,30.04,29.96,29.85,10,10,10,7,0,,0.00,,,268
2013-5-8,68,57,46,54,50,46,100,86,60,30.16,30.12,30.04,10,9,1,6,0,,0.00,,,345
2013-5-9,71,58,44,54,50,45,100,82,46,30.24,30.19,30.14,10,7,0,6,0,,0.00,,Fog,340
2013-5-10,80,62,44,57,52,45,100,71,36,30.21,30.18,30.13,10,9,2,0,0,,0.00,,,-1
2013-5-11,82,66,50,59,50,39,100,60,39,30.21,30.12,30.03,10,10,10,4,0,,0.00,,,330
2013-5-12,71,64,57,63,58,50,100,89,46,30.13,30.08,30.04,10,8,2,7,0,,0.23,,Rain,269
2013-5-13,66,54,42,59,52,41,100,91,52,30.23,30.08,29.97,10,8,2,16,2,28,0.33,,Rain,251
2013-5-14,64,52,41,45,40,36,100,68,37,30.24,30.19,30.13,10,10,10,6,0,,0.00,,,282
2013-5-15,64,52,39,54,46,39,100,84,49,30.14,30.08,30.03,10,10,3,10,0,,0.04,,Rain,275
2013-5-16,69,58,48,55,51,46,100,83,43,30.03,29.96,29.88,10,8,1,12,0,21,0.31,,Rain,279
2013-5-17,60,55,50,54,50,45,100,86,59,30.10,30.02,29.99,10,10,7,9,1,,0.02,,Rain,227
2013-5-18,59,54,50,54,49,46,100,87,67,30.29,30.17,30.10,10,9,3,7,0,,0.24,,Rain,263
2013-5-19,59,54,46,55,52,46,100,96,72,30.42,30.37,30.29,10,9,2,0,0,,0.02,,Rain,-1
2013-5-20,66,55,44,50,48,45,100,81,56,30.37,30.18,29.93,10,10,5,6,0,,0.00,,,335
2013-5-21,55,50,44,48,44,41,100,83,62,29.93,29.86,29.81,10,9,3,12,3,20,0.45,,Rain,243
2013-5-22,50,44,39,46,42,39,100,92,76,29.95,29.91,29.87,10,7,0,6,2,,0.37,,Fog-Rain,216
2013-5-23,53,45,37,50,45,37,100,96,71,30.02,29.98,29.94,10,8,0,6,0,,0.30,,Fog-Rain,216
2013-5-24,59,52,44,54,48,45,100,90,63,30.08,30.03,29.98,10,9,2,6,0,,0.10,,Rain,272
2013-5-25,59,52,46,50,47,43,100,80,55,30.07,30.03,29.98,10,10,10,4,0,,0.00,,,310
2013-5-26,62,55,48,55,52,48,100,93,72,30.01,29.99,29.95,10,9,3,8,0,,0.03,,Rain,290
2013-5-27,60,53,46,57,53,46,100,98,82,29.99,29.81,29.72,10,8,0,4,0,,0.55,,Fog-Rain,248
2013-5-28,62,56,50,55,51,48,100,88,59,29.90,29.86,29.79,10,9,2,13,2,18,0.08,,Rain,245
2013-5-29,59,54,48,54,50,46,100,91,67,30.01,29.82,29.69,10,8,2,12,1,20,0.22,,Rain,252
2013-5-30,60,54,48,50,47,45,100,82,59,30.27,30.14,30.01,10,10,4,13,2,17,0.00,,Rain,240
2013-5-31,64,56,48,50,47,43,100,79,48,30.35,30.31,30.26,10,10,10,6,0,,0.00,,,330